Locust, Kentucky
Current Conditions -  °F | °C
As of 6:53 AM on Saturday 25 Oct 2014 (Local Time) from KLOU Reporting Station
Broken Clouds Broken Clouds  
Wind Chill: 49°   Ceiling: 5000
Heat Index: 49°   Visibility: 7mi
Dew Point: 47°   Wind: 0mph
Humidity: 93%   Direction: NA
Pressure: 30.03"   Gusts: NA
Location:  38.6825°N, 85.3715°W
Report Text: KLOU 251053Z 00000KT 7SM BKN050 BKN065 09/08 A3003 RMK AO2 SLP169 T00940083
Loading
Personal Weather Stations






























Interactive Weather Map
Tropical Storm Tracking
New forecast layout! Learn more

10-Day Weather Forecast

Advertisements
Track Severe Weather on mobile